• Join FlightAware (Why Join?)
  • Login
  • US Flag 
05:55PM EDT


 

Airport Tracker/Info


-or-


 

Live Flight TrackerFlight Track Log ✈ FIN666 ✈ 17-Jan-2014 ✈ EKCH / CPH - EFHK / HEL

Flight Track Log - Related Links

Times and Time Zones

All times are in EST time to prevent confusion due to time zone crossing. See the FIN666 flight status page for this flight to view local times or setup timezone preferences in your user account.

Time Position Orientation Groundspeed Altitude Reporting Facility
EST Latitude Longitude Course Direction KTS MPH feet Rate Location/Type
07:28AM 55.8520 13.1400 49° Northeast  Level Estimated
07:29AM 55.9296 13.3027 50° Northeast  Level Estimated
07:30AM 56.0070 13.4660 50° Northeast  Level Estimated
07:31AM 56.0842 13.6299 50° Northeast  Level Estimated
07:32AM 56.1674 13.8078 50° Northeast  Level Estimated
07:33AM 56.2503 13.9865 50° Northeast  Level Estimated
07:34AM 56.3330 14.1660 50° Northeast  Level Estimated
07:35AM 56.4153 14.3462 50° Northeast  Level Estimated
07:36AM 56.4975 14.5272 51° Northeast  Level Estimated
07:37AM 56.5793 14.7090 51° Northeast  Level Estimated
07:38AM 56.6609 14.8916 51° Northeast  Level Estimated
07:39AM 56.7422 15.0750 51° Northeast  Level Estimated
07:40AM 56.8233 15.2592 51° Northeast  Level Estimated
07:41AM 56.9041 15.4441 51° Northeast  Level Estimated
07:42AM 56.9846 15.6299 51° Northeast  Level Estimated
07:43AM 57.0648 15.8165 52° Northeast  Level Estimated
07:44AM 57.1448 16.0039 52° Northeast  Level Estimated
07:45AM 57.2244 16.1921 52° Northeast  Level Estimated
07:46AM 57.3038 16.3811 52° Northeast  Level Estimated
07:47AM 57.3829 16.5709 52° Northeast  Level Estimated
07:48AM 57.4618 16.7615 52° Northeast  Level Estimated
07:49AM 57.5403 16.9530 53° Northeast  Level Estimated
07:50AM 57.6185 17.1453 53° Northeast  Level Estimated
07:51AM 57.6965 17.3384 53° Northeast  Level Estimated
07:52AM 57.7741 17.5324 53° Northeast  Level Estimated
07:53AM 57.8515 17.7271 53° Northeast  Level Estimated
07:54AM 57.9285 17.9228 53° Northeast  Level Estimated
07:55AM 58.0053 18.1192 54° Northeast  Level Estimated
07:56AM 58.0817 18.3165 54° Northeast  Level Estimated
07:57AM 58.1579 18.5147 54° Northeast  Level Estimated
07:58AM 58.2337 18.7137 54° Northeast  Level Estimated
07:59AM 58.3092 18.9135 54° Northeast  Level Estimated
08:00AM 58.3844 19.1142 54° Northeast  Level Estimated
08:01AM 58.4593 19.3158 55° Northeast  Level Estimated
08:02AM 58.5339 19.5182 55° Northeast  Level Estimated
08:03AM 58.6082 19.7215 55° Northeast  Level Estimated
08:04AM 58.6821 19.9256 55° Northeast  Level Estimated
08:05AM 58.7557 20.1306 55° Northeast  Level Estimated
08:06AM 58.8290 20.3365 55° Northeast  Level Estimated
08:07AM 58.9019 20.5432 56° Northeast  Level Estimated
08:08AM 58.9746 20.7509 56° Northeast  Level Estimated
08:09AM 59.0468 20.9594 56° Northeast  Level Estimated
08:10AM 59.1166 21.1622 56° Northeast  Level Estimated
08:11AM 59.1860 21.3658 56° Northeast  Level Estimated
08:12AM 59.2550 21.5703 56° Northeast  Level Estimated
08:13AM 59.3238 21.7756 57° Northeast  Level Estimated
08:14AM 59.3922 21.9817 57° Northeast  Level Estimated
08:15AM 59.4603 22.1886 57° Northeast  Level Estimated
08:16AM 59.5281 22.3964 57° Northeast  Level Estimated
08:17AM 59.5955 22.6050 57° Northeast  Level Estimated
08:18AM 59.6626 22.8145 58° Northeast  Level Estimated
08:19AM 59.7294 23.0248 58° Northeast  Level Estimated
08:20AM 59.7958 23.2359 58° Northeast  Level Estimated
08:21AM 59.8619 23.4479 58° Northeast  Level Estimated
08:22AM 59.9277 23.6607 58° Northeast  Level Estimated
08:23AM 59.9931 23.8744 58° Northeast  Level Estimated
08:24AM 60.0582 24.0889 59° Northeast  Level Estimated
08:25AM 60.1229 24.3043 59° Northeast  Level Estimated
08:26AM 60.1872 24.5205 59° Northeast  Level Estimated
08:27AM 60.2513 24.7375 59° Northeast  Level Estimated
08:28AM 60.3149 24.9554 59° Northeast  Level Estimated
08:29AM 60.3172 24.9633 60° Northeast  Level Estimated
08:30AM 60.3172 24.9633 37° Northeast  Level Estimated
08:31AM 60.3172 24.9633 37° Northeast  Level Estimated
08:32AM 60.3172 24.9633 37° Northeast  Level Estimated
08:33AM 60.3172 24.9633 37° Northeast  Level Estimated
08:34AM 60.3172 24.9633 37° Northeast  Level Estimated
08:35AM 60.3172 24.9633 37° Northeast  Level Estimated
08:36AM 60.3172 24.9633 37° Northeast  Level Estimated
08:37AM 60.3172 24.9633 37° Northeast  Level Estimated
08:38AM 60.3172 24.9633 37° Northeast  Level Estimated
08:39AM 60.3172 24.9633 37° Northeast  Level Estimated
08:40AM 60.3172 24.9633 37° Northeast  Level Estimated
08:41AM 60.3172 24.9633 37° Northeast  Level Estimated
08:42AM 60.3172 24.9633 37° Northeast  Level Estimated
08:43AM 60.3172 24.9633 37° Northeast  Level Estimated
08:44AM 60.3172 24.9633 37° Northeast  Level Estimated
08:45AM 60.3172 24.9633 37° Northeast  Level Estimated
08:46AM 60.3172 24.9633 37° Northeast  Level Estimated